Terminal Aerodrome Forecast
Issued by NWS Jackson, MS

Home | Current Version | Previous Version | Text Only | Print | Product List | Glossary On
Versions: 1 2 3 4 5 6 7 8 9 10 11 12 13
000
FTUS44 KJAN 172331
TAFGWO
TAF
KGWO 172331Z 1800/1824 00000KT 5SM -DZ BR BKN005 OVC250
     FM180200 00000KT 1SM -DZ BR BKN003 OVC250
     FM181700 00000KT 3SM BR BKN008 BKN250
     FM181900 00000KT P6SM BKN015 BKN250
     FM182100 00000KT P6SM BKN050 BKN250=

USA.gov is the U.S. government's official web portal to all federal, state and local government web resources and services.